ADDS METAR Data INFO
IDs: Format: Raw Decoded Include TAF

Data at: 2311 UTC 24 May 2018

METAR for:K6B9 (Skaneateles Arpt, NY, US)
Text:K6B9 242255Z AUTO 00000KT 10SM CLR 25/09 A3009 RMK AO2
Temperature: 25.0°C ( 77°F)
Dewpoint: 9.0°C ( 48°F) [RH = 36%]
Pressure (altimeter):30.09 inches Hg (1019.0 mb)
Winds:calm
Visibility:10 or more sm (16+ km)
Ceiling:at least 12,000 feet AGL
Clouds:sky clear below 12,000 feet AGL
QC Flag:automated observation with no human augmentation
Text:K6B9 242235Z AUTO 00000KT 10SM CLR 25/09 A3009 RMK AO2
Temperature: 25.0°C ( 77°F)
Dewpoint: 9.0°C ( 48°F) [RH = 36%]
Pressure (altimeter):30.09 inches Hg (1019.0 mb)
Winds:calm
Visibility:10 or more sm (16+ km)
Ceiling:at least 12,000 feet AGL
Clouds:sky clear below 12,000 feet AGL
QC Flag:automated observation with no human augmentation
Text:K6B9 242215Z AUTO VRB05KT 10SM CLR 26/10 A3010 RMK AO2
Temperature: 26.0°C ( 79°F)
Dewpoint: 10.0°C ( 50°F) [RH = 37%]
Pressure (altimeter):30.10 inches Hg (1019.4 mb)
Winds:variable direction winds at 6 MPH (5 knots; 2.6 m/s)
Visibility:10 or more sm (16+ km)
Ceiling:at least 12,000 feet AGL
Clouds:sky clear below 12,000 feet AGL
QC Flag:automated observation with no human augmentation
Text:K6B9 242155Z AUTO VRB05KT 10SM CLR 26/11 A3010 RMK AO2
Temperature: 26.0°C ( 79°F)
Dewpoint: 11.0°C ( 52°F) [RH = 39%]
Pressure (altimeter):30.10 inches Hg (1019.4 mb)
Winds:variable direction winds at 6 MPH (5 knots; 2.6 m/s)
Visibility:10 or more sm (16+ km)
Ceiling:at least 12,000 feet AGL
Clouds:sky clear below 12,000 feet AGL
QC Flag:automated observation with no human augmentation
Text:K6B9 242135Z AUTO VRB03KT 10SM CLR 25/10 A3010 RMK AO2
Temperature: 25.0°C ( 77°F)
Dewpoint: 10.0°C ( 50°F) [RH = 39%]
Pressure (altimeter):30.10 inches Hg (1019.4 mb)
Winds:variable direction winds at 3 MPH (3 knots; 1.5 m/s)
Visibility:10 or more sm (16+ km)
Ceiling:at least 12,000 feet AGL
Clouds:sky clear below 12,000 feet AGL
QC Flag:automated observation with no human augmentation
Text:K6B9 242115Z AUTO 26004KT 10SM CLR 26/11 A3011 RMK AO2
Temperature: 26.0°C ( 79°F)
Dewpoint: 11.0°C ( 52°F) [RH = 39%]
Pressure (altimeter):30.11 inches Hg (1019.7 mb)
Winds:from the W (260 degrees) at 5 MPH (4 knots; 2.1 m/s)
Visibility:10 or more sm (16+ km)
Ceiling:at least 12,000 feet AGL
Clouds:sky clear below 12,000 feet AGL
QC Flag:automated observation with no human augmentation
Text:K6B9 242055Z AUTO 00000KT 10SM CLR 25/12 A3011 RMK AO2
Temperature: 25.0°C ( 77°F)
Dewpoint: 12.0°C ( 54°F) [RH = 44%]
Pressure (altimeter):30.11 inches Hg (1019.7 mb)
Winds:calm
Visibility:10 or more sm (16+ km)
Ceiling:at least 12,000 feet AGL
Clouds:sky clear below 12,000 feet AGL
QC Flag:automated observation with no human augmentation
Text:K6B9 242035Z AUTO VRB05KT 10SM CLR 25/11 A3012 RMK AO2
Temperature: 25.0°C ( 77°F)
Dewpoint: 11.0°C ( 52°F) [RH = 41%]
Pressure (altimeter):30.12 inches Hg (1020.1 mb)
Winds:variable direction winds at 6 MPH (5 knots; 2.6 m/s)
Visibility:10 or more sm (16+ km)
Ceiling:at least 12,000 feet AGL
Clouds:sky clear below 12,000 feet AGL
QC Flag:automated observation with no human augmentation
Text:K6B9 242015Z AUTO 25005KT 10SM CLR 25/11 A3012 RMK AO2
Temperature: 25.0°C ( 77°F)
Dewpoint: 11.0°C ( 52°F) [RH = 41%]
Pressure (altimeter):30.12 inches Hg (1020.1 mb)
Winds:from the WSW (250 degrees) at 6 MPH (5 knots; 2.6 m/s)
Visibility:10 or more sm (16+ km)
Ceiling:at least 12,000 feet AGL
Clouds:sky clear below 12,000 feet AGL
QC Flag:automated observation with no human augmentation
Text:K6B9 241955Z AUTO VRB03KT 10SM CLR 25/11 A3013 RMK AO2
Temperature: 25.0°C ( 77°F)
Dewpoint: 11.0°C ( 52°F) [RH = 41%]
Pressure (altimeter):30.13 inches Hg (1020.4 mb)
Winds:variable direction winds at 3 MPH (3 knots; 1.5 m/s)
Visibility:10 or more sm (16+ km)
Ceiling:at least 12,000 feet AGL
Clouds:sky clear below 12,000 feet AGL
QC Flag:automated observation with no human augmentation
Text:K6B9 241935Z AUTO VRB05KT 10SM CLR 24/11 A3014 RMK AO2
Temperature: 24.0°C ( 75°F)
Dewpoint: 11.0°C ( 52°F) [RH = 44%]
Pressure (altimeter):30.14 inches Hg (1020.7 mb)
Winds:variable direction winds at 6 MPH (5 knots; 2.6 m/s)
Visibility:10 or more sm (16+ km)
Ceiling:at least 12,000 feet AGL
Clouds:sky clear below 12,000 feet AGL
QC Flag:automated observation with no human augmentation
Text:K6B9 241855Z AUTO 25008KT 220V280 10SM CLR 24/11 A3015 RMK AO2
Temperature: 24.0°C ( 75°F)
Dewpoint: 11.0°C ( 52°F) [RH = 44%]
Pressure (altimeter):30.15 inches Hg (1021.1 mb)
Winds:from the WSW (250 degrees) at 9 MPH (8 knots; 4.1 m/s)
Visibility:10 or more sm (16+ km)
Ceiling:at least 12,000 feet AGL
Clouds:sky clear below 12,000 feet AGL
QC Flag:automated observation with no human augmentation
Text:K6B9 241835Z AUTO 24004KT 10SM CLR 24/11 A3016 RMK AO2
Temperature: 24.0°C ( 75°F)
Dewpoint: 11.0°C ( 52°F) [RH = 44%]
Pressure (altimeter):30.16 inches Hg (1021.4 mb)
Winds:from the WSW (240 degrees) at 5 MPH (4 knots; 2.1 m/s)
Visibility:10 or more sm (16+ km)
Ceiling:at least 12,000 feet AGL
Clouds:sky clear below 12,000 feet AGL
QC Flag:automated observation with no human augmentation
Text:K6B9 241815Z AUTO VRB03KT 10SM CLR 24/10 A3016 RMK AO2
Temperature: 24.0°C ( 75°F)
Dewpoint: 10.0°C ( 50°F) [RH = 41%]
Pressure (altimeter):30.16 inches Hg (1021.4 mb)
Winds:variable direction winds at 3 MPH (3 knots; 1.5 m/s)
Visibility:10 or more sm (16+ km)
Ceiling:at least 12,000 feet AGL
Clouds:sky clear below 12,000 feet AGL
QC Flag:automated observation with no human augmentation
Text:K6B9 241755Z AUTO VRB04KT 10SM CLR 23/10 A3017 RMK AO2
Temperature: 23.0°C ( 73°F)
Dewpoint: 10.0°C ( 50°F) [RH = 44%]
Pressure (altimeter):30.17 inches Hg (1021.8 mb)
Winds:variable direction winds at 5 MPH (4 knots; 2.1 m/s)
Visibility:10 or more sm (16+ km)
Ceiling:at least 12,000 feet AGL
Clouds:sky clear below 12,000 feet AGL
QC Flag:automated observation with no human augmentation
Text:K6B9 241735Z AUTO 00000KT 10SM CLR 23/10 A3017 RMK AO2
Temperature: 23.0°C ( 73°F)
Dewpoint: 10.0°C ( 50°F) [RH = 44%]
Pressure (altimeter):30.17 inches Hg (1021.8 mb)
Winds:calm
Visibility:10 or more sm (16+ km)
Ceiling:at least 12,000 feet AGL
Clouds:sky clear below 12,000 feet AGL
QC Flag:automated observation with no human augmentation
Text:K6B9 241715Z AUTO 00000G10KT 10SM CLR 23/10 A3018 RMK AO2
Temperature: 23.0°C ( 73°F)
Dewpoint: 10.0°C ( 50°F) [RH = 44%]
Pressure (altimeter):30.18 inches Hg (1022.1 mb)
Winds:calm
Visibility:10 or more sm (16+ km)
Ceiling:at least 12,000 feet AGL
Clouds:sky clear below 12,000 feet AGL
QC Flag:automated observation with no human augmentation
Text:K6B9 241655Z AUTO VRB04KT 10SM CLR 22/09 A3018 RMK AO2
Temperature: 22.0°C ( 72°F)
Dewpoint: 9.0°C ( 48°F) [RH = 43%]
Pressure (altimeter):30.18 inches Hg (1022.1 mb)
Winds:variable direction winds at 5 MPH (4 knots; 2.1 m/s)
Visibility:10 or more sm (16+ km)
Ceiling:at least 12,000 feet AGL
Clouds:sky clear below 12,000 feet AGL
QC Flag:automated observation with no human augmentation
Text:K6B9 241635Z AUTO 00000G10KT 10SM CLR 22/10 A3019 RMK AO2
Temperature: 22.0°C ( 72°F)
Dewpoint: 10.0°C ( 50°F) [RH = 46%]
Pressure (altimeter):30.19 inches Hg (1022.4 mb)
Winds:calm
Visibility:10 or more sm (16+ km)
Ceiling:at least 12,000 feet AGL
Clouds:sky clear below 12,000 feet AGL
QC Flag:automated observation with no human augmentation
Text:K6B9 241615Z AUTO VRB05KT 10SM CLR 21/09 A3019 RMK AO2
Temperature: 21.0°C ( 70°F)
Dewpoint: 9.0°C ( 48°F) [RH = 46%]
Pressure (altimeter):30.19 inches Hg (1022.4 mb)
Winds:variable direction winds at 6 MPH (5 knots; 2.6 m/s)
Visibility:10 or more sm (16+ km)
Ceiling:at least 12,000 feet AGL
Clouds:sky clear below 12,000 feet AGL
QC Flag:automated observation with no human augmentation
Text:K6B9 241555Z AUTO 25007KT 210V270 10SM CLR 21/09 A3020 RMK AO2
Temperature: 21.0°C ( 70°F)
Dewpoint: 9.0°C ( 48°F) [RH = 46%]
Pressure (altimeter):30.20 inches Hg (1022.8 mb)
Winds:from the WSW (250 degrees) at 8 MPH (7 knots; 3.6 m/s)
Visibility:10 or more sm (16+ km)
Ceiling:at least 12,000 feet AGL
Clouds:sky clear below 12,000 feet AGL
QC Flag:automated observation with no human augmentation
Text:K6B9 241535Z AUTO VRB04KT CLR 21/07 A3020 RMK AO2
Temperature: 21.0°C ( 70°F)
Dewpoint: 7.0°C ( 45°F) [RH = 40%]
Pressure (altimeter):30.20 inches Hg (1022.8 mb)
Winds:variable direction winds at 5 MPH (4 knots; 2.1 m/s)
Ceiling:at least 12,000 feet AGL
Clouds:sky clear below 12,000 feet AGL
QC Flag:automated observation with no human augmentation
Text:K6B9 241515Z AUTO 22004KT 10SM CLR 20/07 A3020 RMK AO2
Temperature: 20.0°C ( 68°F)
Dewpoint: 7.0°C ( 45°F) [RH = 43%]
Pressure (altimeter):30.20 inches Hg (1022.8 mb)
Winds:from the SW (220 degrees) at 5 MPH (4 knots; 2.1 m/s)
Visibility:10 or more sm (16+ km)
Ceiling:at least 12,000 feet AGL
Clouds:sky clear below 12,000 feet AGL
QC Flag:automated observation with no human augmentation
Text:K6B9 241455Z AUTO 27006KT 10SM CLR 20/06 A3020 RMK AO2
Temperature: 20.0°C ( 68°F)
Dewpoint: 6.0°C ( 43°F) [RH = 40%]
Pressure (altimeter):30.20 inches Hg (1022.8 mb)
Winds:from the W (270 degrees) at 7 MPH (6 knots; 3.1 m/s)
Visibility:10 or more sm (16+ km)
Ceiling:at least 12,000 feet AGL
Clouds:sky clear below 12,000 feet AGL
QC Flag:automated observation with no human augmentation
Text:K6B9 241435Z AUTO VRB04KT 10SM CLR 19/05 A3020 RMK AO2
Temperature: 19.0°C ( 66°F)
Dewpoint: 5.0°C ( 41°F) [RH = 40%]
Pressure (altimeter):30.20 inches Hg (1022.8 mb)
Winds:variable direction winds at 5 MPH (4 knots; 2.1 m/s)
Visibility:10 or more sm (16+ km)
Ceiling:at least 12,000 feet AGL
Clouds:sky clear below 12,000 feet AGL
QC Flag:automated observation with no human augmentation
Text:K6B9 241355Z AUTO 26006KT 10SM CLR 18/08 A3021 RMK AO2
Temperature: 18.0°C ( 64°F)
Dewpoint: 8.0°C ( 46°F) [RH = 52%]
Pressure (altimeter):30.21 inches Hg (1023.1 mb)
Winds:from the W (260 degrees) at 7 MPH (6 knots; 3.1 m/s)
Visibility:10 or more sm (16+ km)
Ceiling:at least 12,000 feet AGL
Clouds:sky clear below 12,000 feet AGL
QC Flag:automated observation with no human augmentation
Text:K6B9 241335Z AUTO 00000KT 10SM CLR 17/10 A3021 RMK AO2
Temperature: 17.0°C ( 63°F)
Dewpoint: 10.0°C ( 50°F) [RH = 63%]
Pressure (altimeter):30.21 inches Hg (1023.1 mb)
Winds:calm
Visibility:10 or more sm (16+ km)
Ceiling:at least 12,000 feet AGL
Clouds:sky clear below 12,000 feet AGL
QC Flag:automated observation with no human augmentation
Text:K6B9 241315Z AUTO 00000KT 10SM CLR 17/10 A3021 RMK AO2
Temperature: 17.0°C ( 63°F)
Dewpoint: 10.0°C ( 50°F) [RH = 63%]
Pressure (altimeter):30.21 inches Hg (1023.1 mb)
Winds:calm
Visibility:10 or more sm (16+ km)
Ceiling:at least 12,000 feet AGL
Clouds:sky clear below 12,000 feet AGL
QC Flag:automated observation with no human augmentation
Text:K6B9 241255Z AUTO 00000KT 10SM CLR 16/10 A3022 RMK AO2
Temperature: 16.0°C ( 61°F)
Dewpoint: 10.0°C ( 50°F) [RH = 68%]
Pressure (altimeter):30.22 inches Hg (1023.5 mb)
Winds:calm
Visibility:10 or more sm (16+ km)
Ceiling:at least 12,000 feet AGL
Clouds:sky clear below 12,000 feet AGL
QC Flag:automated observation with no human augmentation
Text:K6B9 241235Z AUTO VRB04KT 10SM CLR 15/09 A3021 RMK AO2
Temperature: 15.0°C ( 59°F)
Dewpoint: 9.0°C ( 48°F) [RH = 67%]
Pressure (altimeter):30.21 inches Hg (1023.1 mb)
Winds:variable direction winds at 5 MPH (4 knots; 2.1 m/s)
Visibility:10 or more sm (16+ km)
Ceiling:at least 12,000 feet AGL
Clouds:sky clear below 12,000 feet AGL
QC Flag:automated observation with no human augmentation
Text:K6B9 241155Z AUTO 00000KT 10SM CLR 15/10 A3021 RMK AO2
Temperature: 15.0°C ( 59°F)
Dewpoint: 10.0°C ( 50°F) [RH = 72%]
Pressure (altimeter):30.21 inches Hg (1023.1 mb)
Winds:calm
Visibility:10 or more sm (16+ km)
Ceiling:at least 12,000 feet AGL
Clouds:sky clear below 12,000 feet AGL
QC Flag:automated observation with no human augmentation
Text:K6B9 241135Z AUTO 25004KT 10SM CLR 14/09 A3021 RMK AO2
Temperature: 14.0°C ( 57°F)
Dewpoint: 9.0°C ( 48°F) [RH = 72%]
Pressure (altimeter):30.21 inches Hg (1023.1 mb)
Winds:from the WSW (250 degrees) at 5 MPH (4 knots; 2.1 m/s)
Visibility:10 or more sm (16+ km)
Ceiling:at least 12,000 feet AGL
Clouds:sky clear below 12,000 feet AGL
QC Flag:automated observation with no human augmentation
Text:K6B9 241115Z AUTO 00000KT 10SM CLR 13/11 A3021 RMK AO2
Temperature: 13.0°C ( 55°F)
Dewpoint: 11.0°C ( 52°F) [RH = 88%]
Pressure (altimeter):30.21 inches Hg (1023.1 mb)
Winds:calm
Visibility:10 or more sm (16+ km)
Ceiling:at least 12,000 feet AGL
Clouds:sky clear below 12,000 feet AGL
QC Flag:automated observation with no human augmentation